LIRALIRQ

Guest
Details From LIRA - Ciampino
To LIRQ - Firenze
Flight Number -
Tags Routegen Generated
Created
Modified
Stats Distance 141 nm / 261 km
Max Altitude 600 ft / 183 m
Waypoints 9
Social Downloads 1
Likes 0
Share VATSIM

Download

Looking for another format? Having issues loading an existing format? Contact us
Advertisement - Login to hide

Notes

Departing runway 33 LIRA. Arriving runway 4 LIRQ.

Route

LIRA +41.87_+012.54 +42.52_+012.01 +43.54_+011.13 +43.59_+011.09 +43.65_+011.07 +43.71_+011.08 +43.76_+011.12 LIRQ

ID Type Via Altitude Latitude Longitude Leg Dist Tot Dist Heading (true) Name
O LIRA APT - 0 ft / 0 m 41.80806˚ 12.58883˚ - 0 nm - -
+41.87_+012.54 LATLON - 600 ft / 183 m 41.87241˚ 12.54440˚ 4 nm 4 nm 333° / 333° -
+42.52_+012.01 LATLON - 600 ft / 183 m 42.51813˚ 12.00690˚ 45 nm 49 nm 329° / 328° -
+43.54_+011.13 LATLON - 600 ft / 183 m 43.54287˚ 11.12980˚ 72 nm 122 nm 328° / 328° -
+43.59_+011.09 LATLON - 600 ft / 183 m 43.59226˚ 11.08811˚ 3 nm 125 nm 329° / 329° -
+43.65_+011.07 LATLON - 600 ft / 183 m 43.64900˚ 11.07222˚ 3 nm 129 nm 349° / 349° -
+43.71_+011.08 LATLON - 600 ft / 183 m 43.70625˚ 11.08408˚ 3 nm 132 nm 9° / 9° -
+43.76_+011.12 LATLON - 600 ft / 183 m 43.75712˚ 11.12233˚ 3 nm 136 nm 29° / 29° -
O LIRQ APT - 0 ft / 0 m 43.80507˚ 11.19741˚ 4 nm 140 nm 48° / 49° -

Altitude Profile

Advertisement - Login to hide

LIRA

Details ICAO LIRA (CIA)
Name CIAMPINO
Region Italy
Timezone Europe/Rome (UTC+1.0)
Stats Elevation 427 ft / 130 m (AMSL)
Location 41.799228° 12.594917°
Runways 1
Magnetic Variation 3.057° E

METAR

LIRA 130350Z 23003KT 170V280 9999 SCT020 BKN030 11/10 Q1017

Decode

TAF

TAF LIRA 122300Z 1300/1324 23010KT 9999 SCT015 BKN030 TEMPO 1300/1306 3000 SHRA BECMG 1316/1318 VRB05KT

Decode

Departure Runways

ID Width Length Bearing (true) Bearing (mag) Surface Threshold Offset Overrun Length
15 154 ft / 47 m 7,246 ft / 2,209 m 152.79° 149.73° Asphalt 0 ft / 0 m 0 ft / 0 m
33 154 ft / 47 m 7,246 ft / 2,209 m 332.80° 329.74° Asphalt 0 ft / 0 m 0 ft / 0 m

LIRQ

Details ICAO LIRQ (FLR)
Name Firenze
Region Italy
Timezone Europe/Rome (UTC+1.0)
Stats Elevation 142 ft / 43 m (AMSL)
Location 43.809984° 11.205118°
Runways 1
Magnetic Variation 2.874° E

METAR

LIRQ 130350Z 10004KT 9999 SCT060 08/08 Q1016

Decode

TAF

TAF LIRQ 122300Z 1300/1324 VRB06KT 9999 SCT040 TEMPO 1300/1306 SHRA

Decode

Destination Runways

ID Width Length Bearing (true) Bearing (mag) Surface Threshold Offset Overrun Length
05 98 ft / 30 m 5,420 ft / 1,652 m 48.52° 45.65° Asphalt 492 ft / 150 m 0 ft / 0 m
23 98 ft / 30 m 5,420 ft / 1,652 m 228.53° 225.66° Asphalt 2,287 ft / 697 m 0 ft / 0 m

Approach Navaids

Runway Type Ident Frequency Range Bearing (true) Bearing (mag) Slope Elevation
05 Localiser IFZ 110.30 MHz 18 nm / 33 km 48.10° 45.23° - 131 ft / 40 m (AMSL)
05 Glidescope IFZ 110.30 MHz 10 nm / 19 km 47.00° 44.13° 3.00° 144 ft / 44 m (AMSL)
05 DME IFZ 110.30 MHz 18 nm / 33 km - - - 144 ft / 44 m (AMSL)

Popular Alternatives